EmailTwitter


Observations de surface / Québec / CYMX

Régions: Québec | Canada | États-Unis | Europe | France | UK | Ailleurs
Station
Affichage
Infos & localisation pour CYMX | Aide pour décoder les METARs

Observations prises le 2018-07-19 à 11H00 UTC à MONTREAL MIRABEL, QB (CYMX)

Etat du ciel: quelques nuages.

Température: 13.0 Celsius

Point de rosée: 10.0 Celsius

Humidité relative: 82%

Vents: Ouest à 6 km/h ou 3 noeuds.

Pression au niveau moyen de la mer: 101.88 kilopascals.

Calage altimétrique: 101.86 kilopascals ou 30.08 pouces de mercure.

Visibilité horizontale: 45.00 milles terrestres ou 72.00 kilomètres.

Observation METAR:

CYMX 191100Z 26003KT 210V300 45SM FEW280 13/10 A3008 RMK CI1 CI TR SLP188=